createdAt,value
2023-03-06T00:00:21.578Z,97745.65
2023-03-06T00:03:08.430Z,97750.61
2023-03-06T00:05:35.419Z,97751.83
2023-03-06T00:08:03.048Z,97751.51
2023-03-06T00:10:31.537Z,97752.70
2023-03-06T00:13:05.579Z,97753.27
2023-03-06T00:15:32.394Z,97751.52
2023-03-06T00:17:59.752Z,97754.20
2023-03-06T00:20:26.797Z,97749.65
2023-03-06T00:22:55.496Z,97748.31
2023-03-06T00:25:23.388Z,97747.30
2023-03-06T00:27:50.737Z,97750.21
2023-03-06T00:30:19.290Z,97750.77
2023-03-06T00:32:46.216Z,97750.05
2023-03-06T00:35:13.939Z,97747.13
2023-03-06T00:37:43.338Z,97744.20
2023-03-06T00:40:12.823Z,97748.37
2023-03-06T00:42:39.775Z,97752.48
2023-03-06T00:45:07.462Z,97745.02
2023-03-06T00:47:34.641Z,97746.21
2023-03-06T00:50:01.495Z,97742.98
2023-03-06T00:52:28.526Z,97741.33
2023-03-06T00:54:55.590Z,97738.90
2023-03-06T00:57:22.621Z,97736.64
2023-03-06T00:59:49.675Z,97737.21
2023-03-06T01:02:16.977Z,97744.76
2023-03-06T01:04:44.093Z,97744.88
2023-03-06T01:07:11.652Z,97737.20
2023-03-06T01:09:38.671Z,97739.31
2023-03-06T01:12:05.727Z,97743.50
2023-03-06T01:14:34.036Z,97742.52
2023-03-06T01:17:00.906Z,97744.83
2023-03-06T01:19:27.740Z,97746.49
2023-03-06T01:21:55.133Z,97745.34
2023-03-06T01:24:23.622Z,97746.84
2023-03-06T01:26:50.834Z,97746.20
2023-03-06T01:29:17.782Z,97745.45
2023-03-06T01:31:44.657Z,97746.42
2023-03-06T01:34:11.581Z,97744.57
2023-03-06T01:36:38.528Z,97745.48
2023-03-06T01:39:05.494Z,97746.20
2023-03-06T01:41:32.537Z,97743.46
2023-03-06T01:43:59.595Z,97743.02
2023-03-06T01:46:32.175Z,97743.00
2023-03-06T01:49:14.568Z,97735.02
2023-03-06T01:51:49.888Z,97731.55
2023-03-06T01:54:39.890Z,97735.75
2023-03-06T01:57:09.227Z,97734.61
2023-03-06T01:59:37.865Z,97735.52
2023-03-06T02:02:06.198Z,97734.72
2023-03-06T02:04:33.585Z,97734.10
2023-03-06T02:07:04.366Z,97733.71
2023-03-06T02:09:34.203Z,97734.77
2023-03-06T02:12:02.230Z,97737.33
2023-03-06T02:14:29.622Z,97734.65
2023-03-06T02:16:56.649Z,97734.98
2023-03-06T02:19:26.492Z,97732.24
2023-03-06T02:21:53.542Z,97736.51
2023-03-06T02:24:30.025Z,97734.60
2023-03-06T02:26:57.675Z,97737.75
2023-03-06T02:29:25.956Z,97736.36
2023-03-06T02:31:53.420Z,97735.94
2023-03-06T02:34:20.392Z,97741.02
2023-03-06T02:36:49.368Z,97739.98
2023-03-06T02:39:19.799Z,97742.09
2023-03-06T02:41:46.666Z,97747.10
2023-03-06T02:44:14.106Z,97750.77
2023-03-06T02:46:42.490Z,97752.23
2023-03-06T02:49:10.023Z,97755.55
2023-03-06T02:51:36.959Z,97757.25
2023-03-06T02:54:03.952Z,97755.91
2023-03-06T02:56:31.314Z,97758.19
2023-03-06T02:58:58.365Z,97758.16
2023-03-06T03:01:25.400Z,97759.19
2023-03-06T03:03:52.449Z,97760.72
2023-03-06T03:06:21.023Z,97766.26
2023-03-06T03:08:48.992Z,97770.08
2023-03-06T03:11:16.161Z,97768.52
2023-03-06T03:13:44.057Z,97773.31
2023-03-06T03:16:14.954Z,97776.50
2023-03-06T03:18:43.956Z,97778.14
2023-03-06T03:21:12.028Z,97775.00
2023-03-06T03:23:39.240Z,97776.13
2023-03-06T03:26:10.594Z,97774.29
2023-03-06T03:28:39.361Z,97773.05
2023-03-06T03:31:08.156Z,97771.92
2023-03-06T03:33:35.464Z,97773.06
2023-03-06T03:36:03.989Z,97773.58
2023-03-06T03:38:31.592Z,97771.58
2023-03-06T03:40:59.963Z,97770.28
2023-03-06T03:43:27.057Z,97771.84
2023-03-06T03:45:55.097Z,97774.91
2023-03-06T03:48:23.135Z,97774.33
2023-03-06T03:50:50.050Z,97775.75
2023-03-06T03:53:17.516Z,97773.67
2023-03-06T03:55:46.034Z,97776.03
2023-03-06T03:58:12.813Z,97779.92
2023-03-06T04:00:39.795Z,97773.92
2023-03-06T04:03:10.241Z,97774.10
2023-03-06T04:05:40.445Z,97772.83
2023-03-06T04:08:08.158Z,97775.14
2023-03-06T04:10:38.305Z,97772.81
2023-03-06T04:13:07.537Z,97775.84
2023-03-06T04:15:38.040Z,97775.59
2023-03-06T04:18:05.124Z,97779.51
2023-03-06T04:20:31.977Z,97781.39
2023-03-06T04:22:59.633Z,97781.22
2023-03-06T04:25:26.629Z,97782.95
2023-03-06T04:27:53.769Z,97788.27
2023-03-06T04:30:21.087Z,97784.01
2023-03-06T04:32:48.064Z,97782.63
2023-03-06T04:35:15.113Z,97785.19
2023-03-06T04:37:48.771Z,97788.23
2023-03-06T04:40:19.618Z,97790.97
2023-03-06T04:42:46.943Z,97787.73
2023-03-06T04:45:13.896Z,97787.42
2023-03-06T04:47:41.093Z,97786.20
2023-03-06T04:50:08.514Z,97784.64
2023-03-06T04:52:35.276Z,97781.78
2023-03-06T04:55:07.963Z,97786.83
2023-03-06T04:57:39.024Z,97786.83
2023-03-06T05:00:09.019Z,97790.05
2023-03-06T05:02:36.140Z,97789.73
2023-03-06T05:05:03.485Z,97790.16
2023-03-06T05:07:30.537Z,97792.93
2023-03-06T05:09:57.357Z,97791.78
2023-03-06T05:12:24.185Z,97793.44
2023-03-06T05:14:51.056Z,97793.23
2023-03-06T05:17:18.001Z,97796.95
2023-03-06T05:19:44.952Z,97798.81
2023-03-06T05:22:11.830Z,97802.43
2023-03-06T05:24:38.751Z,97803.81
2023-03-06T05:27:05.709Z,97804.69
2023-03-06T05:29:32.548Z,97809.30
2023-03-06T05:31:59.558Z,97812.77
2023-03-06T05:34:26.658Z,97813.10
2023-03-06T05:36:53.813Z,97815.11
2023-03-06T05:39:20.986Z,97815.72
2023-03-06T05:41:48.128Z,97814.10
2023-03-06T05:44:14.985Z,97819.38
2023-03-06T05:46:41.821Z,97821.39
2023-03-06T05:49:08.978Z,97820.89
2023-03-06T05:51:35.907Z,97825.08
2023-03-06T05:54:02.777Z,97825.63
2023-03-06T05:56:29.726Z,97829.73
2023-03-06T05:58:56.584Z,97829.02
2023-03-06T06:01:24.872Z,97826.65
2023-03-06T06:03:51.932Z,97829.05
2023-03-06T06:06:18.775Z,97829.36
2023-03-06T06:08:45.707Z,97828.20
2023-03-06T06:11:13.175Z,97830.31
2023-03-06T06:13:40.163Z,97834.26
2023-03-06T06:16:11.396Z,97836.16
2023-03-06T06:18:41.045Z,97842.23
2023-03-06T06:21:09.365Z,97841.53
2023-03-06T06:23:36.721Z,97838.21
2023-03-06T06:26:04.979Z,97837.73
2023-03-06T06:28:32.978Z,97835.52
2023-03-06T06:31:00.257Z,97836.83
2023-03-06T06:33:27.390Z,97833.08
2023-03-06T06:35:54.371Z,97835.23
2023-03-06T06:38:21.497Z,97834.37
2023-03-06T06:41:19.030Z,97833.32
2023-03-06T06:43:35.355Z,97837.59
2023-03-06T06:46:24.554Z,97840.46
2023-03-06T06:48:49.625Z,97838.59
2023-03-06T06:51:16.691Z,97841.30
2023-03-06T06:53:44.344Z,97844.35
2023-03-06T06:56:11.290Z,97843.75
2023-03-06T06:58:38.144Z,97844.23
2023-03-06T07:01:06.649Z,97839.23
2023-03-06T07:03:33.762Z,97844.31
2023-03-06T07:06:01.144Z,97844.10
2023-03-06T07:08:28.499Z,97845.45
2023-03-06T07:10:55.461Z,97854.69
2023-03-06T07:13:22.508Z,97856.75
2023-03-06T07:15:49.687Z,97854.37
2023-03-06T07:18:16.817Z,97851.58
2023-03-06T07:20:43.808Z,97853.14
2023-03-06T07:23:11.641Z,97851.95
2023-03-06T07:25:39.002Z,97850.91
2023-03-06T07:28:06.012Z,97854.61
2023-03-06T07:30:32.921Z,97858.91
2023-03-06T07:33:00.220Z,97864.59
2023-03-06T07:35:27.426Z,97863.59
2023-03-06T07:37:54.587Z,97863.68
2023-03-06T07:40:22.670Z,97862.59
2023-03-06T07:42:49.712Z,97864.27
2023-03-06T07:45:19.184Z,97859.08
2023-03-06T07:47:45.959Z,97863.55
2023-03-06T07:50:13.344Z,97862.09
2023-03-06T07:52:40.382Z,97870.08
2023-03-06T07:55:07.554Z,97866.16
2023-03-06T07:57:35.196Z,97862.45
2023-03-06T08:00:03.378Z,97859.73
2023-03-06T08:02:40.694Z,97862.27
2023-03-06T08:05:08.758Z,97863.90
2023-03-06T08:07:36.021Z,97862.27
2023-03-06T08:10:03.464Z,97867.63
2023-03-06T08:12:30.410Z,97866.93
2023-03-06T08:14:57.359Z,97865.46
2023-03-06T08:17:24.207Z,97865.29
2023-03-06T08:19:51.156Z,97865.89
2023-03-06T08:22:18.108Z,97868.52
2023-03-06T08:24:45.059Z,97865.90
2023-03-06T08:27:12.009Z,97865.66
2023-03-06T08:29:39.061Z,97858.21
2023-03-06T08:32:06.158Z,97862.45
2023-03-06T08:34:33.245Z,97866.42
2023-03-06T08:37:00.324Z,97867.18
2023-03-06T08:39:27.377Z,97863.11
2023-03-06T08:41:54.432Z,97865.13
2023-03-06T08:44:21.488Z,97867.56
2023-03-06T08:46:48.540Z,97869.10
2023-03-06T08:49:15.381Z,97865.77
2023-03-06T08:51:42.651Z,97861.05
2023-03-06T08:54:11.640Z,97858.48
2023-03-06T08:56:38.910Z,97856.67
2023-03-06T08:59:08.916Z,97851.32
2023-03-06T09:01:37.438Z,97852.51
2023-03-06T09:04:05.995Z,97850.20
2023-03-06T09:06:34.592Z,97854.02
2023-03-06T09:09:04.805Z,97859.16
2023-03-06T09:11:32.063Z,97866.55
2023-03-06T09:13:59.540Z,97866.55
2023-03-06T09:16:26.768Z,97874.81
2023-03-06T09:18:53.923Z,97873.64
2023-03-06T09:21:21.333Z,97873.02
2023-03-06T09:23:48.362Z,97873.35
2023-03-06T09:26:15.406Z,97873.70
2023-03-06T09:28:42.466Z,97869.05
2023-03-06T09:31:10.821Z,97873.70
2023-03-06T09:33:38.308Z,97874.52
2023-03-06T09:36:06.097Z,97870.14
2023-03-06T09:38:33.129Z,97865.27
2023-03-06T09:43:39.616Z,97868.64
2023-03-06T09:46:26.974Z,97870.14
2023-03-06T09:48:54.602Z,97863.73
2023-03-06T09:51:27.176Z,97867.25
2023-03-06T09:53:54.128Z,97869.40
2023-03-06T09:56:23.151Z,97870.30
2023-03-06T09:58:53.356Z,97871.05
2023-03-06T10:01:27.122Z,97869.36
2023-03-06T10:03:57.693Z,97866.45
2023-03-06T10:06:24.745Z,97866.31
2023-03-06T10:08:54.486Z,97866.45
2023-03-06T10:11:25.681Z,97865.38
2023-03-06T10:14:06.983Z,97860.50
2023-03-06T10:16:34.035Z,97867.73
2023-03-06T10:19:02.858Z,97865.69
2023-03-06T10:21:38.587Z,97864.93
2023-03-06T10:24:13.148Z,97868.14
2023-03-06T10:26:44.554Z,97865.11
2023-03-06T10:29:11.774Z,97858.67
2023-03-06T10:31:40.819Z,97858.15
2023-03-06T10:34:18.939Z,97859.17
2023-03-06T10:36:45.709Z,97859.65
2023-03-06T10:39:16.987Z,97859.07
2023-03-06T10:41:45.303Z,97853.05
2023-03-06T10:44:12.242Z,97853.66
2023-03-06T10:46:39.282Z,97849.84
2023-03-06T10:49:21.814Z,97851.73
2023-03-06T10:52:07.603Z,97852.83
2023-03-06T10:54:38.938Z,97846.60
2023-03-06T10:57:20.219Z,97843.85
2023-03-06T10:59:54.751Z,97836.53
2023-03-06T11:02:21.704Z,97836.97
2023-03-06T11:04:51.477Z,97830.48
2023-03-06T11:07:20.504Z,97829.35
2023-03-06T11:09:56.533Z,97826.86
2023-03-06T11:12:25.976Z,97823.45
2023-03-06T11:15:12.266Z,97817.69
2023-03-06T11:17:48.599Z,97813.00
2023-03-06T11:20:17.944Z,97813.10
2023-03-06T11:23:04.918Z,97813.03
2023-03-06T11:25:33.649Z,97810.69
2023-03-06T11:28:07.855Z,97812.70
2023-03-06T11:30:39.339Z,97813.34
2023-03-06T11:33:29.277Z,97815.15
2023-03-06T11:36:02.271Z,97808.06
2023-03-06T11:38:40.677Z,97801.83
2023-03-06T11:41:12.948Z,97802.21
2023-03-06T11:44:00.469Z,97803.30
2023-03-06T11:46:30.393Z,97804.36
2023-03-06T11:49:12.686Z,97806.37
2023-03-06T11:51:47.683Z,97796.73
2023-03-06T11:54:14.578Z,97790.16
2023-03-06T11:56:41.396Z,97790.17
2023-03-06T11:59:20.551Z,97789.16
2023-03-06T12:01:54.069Z,97789.57
2023-03-06T12:04:30.018Z,97783.84
2023-03-06T12:07:05.552Z,97783.02
2023-03-06T12:09:46.325Z,97785.80
2023-03-06T12:12:22.496Z,97783.39
2023-03-06T12:14:49.344Z,97777.51
2023-03-06T12:17:25.596Z,97779.44
2023-03-06T12:20:11.168Z,97782.14
2023-03-06T12:22:38.231Z,97779.73
2023-03-06T12:25:09.062Z,97780.58
2023-03-06T12:27:39.087Z,97779.52
2023-03-06T12:30:20.389Z,97783.53
2023-03-06T12:32:50.198Z,97785.49
2023-03-06T12:35:31.477Z,97785.33
2023-03-06T12:38:10.787Z,97789.52
2023-03-06T12:40:47.056Z,97788.34
2023-03-06T12:43:33.137Z,97785.51
2023-03-06T12:46:12.414Z,97778.44
2023-03-06T12:48:41.264Z,97772.84
2023-03-06T12:51:10.883Z,97773.13
2023-03-06T12:53:39.978Z,97770.83
2023-03-06T12:56:07.031Z,97772.08
2023-03-06T12:58:35.021Z,97770.17
2023-03-06T13:01:23.700Z,97768.96
2023-03-06T13:03:53.571Z,97771.87
2023-03-06T13:06:36.558Z,97778.89
2023-03-06T13:09:19.593Z,97770.65
2023-03-06T13:11:46.408Z,97771.68
2023-03-06T13:14:24.253Z,97765.50
2023-03-06T13:16:51.525Z,97768.57
2023-03-06T13:19:27.270Z,97761.98
2023-03-06T13:21:54.112Z,97762.52
2023-03-06T13:24:21.776Z,97755.65
2023-03-06T13:26:50.675Z,97753.58
2023-03-06T13:29:35.957Z,97753.38
2023-03-06T13:32:02.833Z,97749.30
2023-03-06T13:34:37.437Z,97741.41
2023-03-06T13:37:13.295Z,97739.30
2023-03-06T13:40:03.242Z,97732.90
2023-03-06T13:42:33.788Z,97732.17
2023-03-06T13:45:19.145Z,97734.27
2023-03-06T13:48:19.569Z,97729.51
2023-03-06T13:50:43.812Z,97721.70
2023-03-06T13:53:10.845Z,97729.30
2023-03-06T13:55:41.747Z,97717.40
2023-03-06T13:58:18.212Z,97711.21
2023-03-06T14:00:52.629Z,97714.48
2023-03-06T14:03:19.787Z,97714.42
2023-03-06T14:05:47.953Z,97720.80
2023-03-06T14:08:31.816Z,97714.04
2023-03-06T14:11:13.177Z,97717.67
2023-03-06T14:13:47.858Z,97712.08
2023-03-06T14:16:22.788Z,97710.52
2023-03-06T14:18:50.902Z,97711.58
2023-03-06T14:21:30.396Z,97714.98
2023-03-06T14:24:00.429Z,97715.13
2023-03-06T14:26:31.417Z,97713.64
2023-03-06T14:28:59.413Z,97712.31
2023-03-06T14:31:34.244Z,97706.56
2023-03-06T14:34:06.293Z,97702.35
2023-03-06T14:36:42.863Z,97696.20
2023-03-06T14:39:28.848Z,97694.16
2023-03-06T14:42:14.305Z,97693.20
2023-03-06T14:44:41.285Z,97692.13
2023-03-06T14:47:17.641Z,97692.11
2023-03-06T14:49:44.496Z,97692.44
2023-03-06T14:52:17.063Z,97693.47
2023-03-06T14:54:44.730Z,97690.62
2023-03-06T14:57:17.994Z,97690.39
2023-03-06T14:59:47.947Z,97689.95
2023-03-06T15:02:20.936Z,97688.16
2023-03-06T15:05:17.050Z,97684.73
2023-03-06T15:07:44.717Z,97683.14
2023-03-06T15:10:29.299Z,97684.70
2023-03-06T15:13:06.759Z,97680.33
2023-03-06T15:15:33.617Z,97679.08
2023-03-06T15:18:00.604Z,97677.73
2023-03-06T15:20:57.084Z,97674.34
2023-03-06T15:23:25.057Z,97673.45
2023-03-06T15:25:56.340Z,97671.20
2023-03-06T15:28:39.072Z,97670.48
2023-03-06T15:31:18.640Z,97667.33
2023-03-06T15:34:04.308Z,97664.54
2023-03-06T15:36:32.632Z,97658.77
2023-03-06T15:39:00.487Z,97658.27
2023-03-06T15:41:33.513Z,97657.41
2023-03-06T15:44:01.888Z,97655.59
2023-03-06T15:46:29.396Z,97658.42
2023-03-06T15:48:58.324Z,97661.90
2023-03-06T15:51:25.238Z,97659.06
2023-03-06T15:53:55.014Z,97657.93
2023-03-06T15:56:42.507Z,97655.77
2023-03-06T15:59:19.795Z,97651.51
2023-03-06T16:01:46.951Z,97652.74
2023-03-06T16:04:16.539Z,97651.48
2023-03-06T16:06:46.690Z,97653.27
2023-03-06T16:09:13.746Z,97653.94
2023-03-06T16:11:44.342Z,97651.67
2023-03-06T16:14:18.288Z,97653.48
2023-03-06T16:16:45.754Z,97648.45
2023-03-06T16:19:25.939Z,97653.81
2023-03-06T16:21:54.501Z,97651.70
2023-03-06T16:24:21.534Z,97653.67
2023-03-06T16:26:52.480Z,97652.57
2023-03-06T16:29:21.167Z,97657.18
2023-03-06T16:31:48.527Z,97657.35
2023-03-06T16:34:15.804Z,97656.67
2023-03-06T16:36:42.641Z,97657.39
2023-03-06T16:39:16.651Z,97650.27
2023-03-06T16:41:45.437Z,97649.02
2023-03-06T16:44:12.905Z,97650.05
2023-03-06T16:46:42.204Z,97651.58
2023-03-06T16:49:19.919Z,97655.48
2023-03-06T16:51:47.477Z,97654.91
2023-03-06T16:54:14.439Z,97655.37
2023-03-06T16:56:41.777Z,97657.80
2023-03-06T16:59:08.936Z,97659.08
2023-03-06T17:01:36.371Z,97660.40
2023-03-06T17:04:03.560Z,97659.99
2023-03-06T17:06:30.824Z,97658.16
2023-03-06T17:08:59.298Z,97654.16
2023-03-06T17:11:26.966Z,97656.20
2023-03-06T17:13:54.852Z,97652.45
2023-03-06T17:16:21.854Z,97648.81
2023-03-06T17:18:49.201Z,97646.91
2023-03-06T17:21:16.053Z,97645.74
2023-03-06T17:23:43.974Z,97644.65
2023-03-06T17:26:15.420Z,97644.59
2023-03-06T17:28:42.330Z,97645.97
2023-03-06T17:31:16.940Z,97644.63
2023-03-06T17:33:43.846Z,97644.64
2023-03-06T17:36:11.120Z,97639.17
2023-03-06T17:38:37.997Z,97634.75
2023-03-06T17:41:05.620Z,97631.00
2023-03-06T17:43:33.205Z,97628.04
2023-03-06T17:46:07.575Z,97624.98
2023-03-06T17:48:34.877Z,97628.27
2023-03-06T17:51:01.819Z,97627.55
2023-03-06T17:53:28.779Z,97626.19
2023-03-06T17:55:57.662Z,97625.71
2023-03-06T17:58:25.059Z,97625.28
2023-03-06T18:00:52.073Z,97617.27
2023-03-06T18:03:19.227Z,97614.81
2023-03-06T18:05:46.312Z,97609.59
2023-03-06T18:08:13.545Z,97610.23
2023-03-06T18:10:41.105Z,97609.06
2023-03-06T18:13:08.781Z,97607.36
2023-03-06T18:15:39.813Z,97602.32
2023-03-06T18:18:07.685Z,97596.76
2023-03-06T18:20:39.548Z,97595.40
2023-03-06T18:23:06.404Z,97591.14
2023-03-06T18:25:33.560Z,97588.88
2023-03-06T18:28:01.121Z,97593.12
2023-03-06T18:30:28.078Z,97591.25
2023-03-06T18:32:55.024Z,97589.46
2023-03-06T18:35:22.021Z,97583.73
2023-03-06T18:37:49.028Z,97585.52
2023-03-06T18:40:16.180Z,97582.36
2023-03-06T18:42:43.135Z,97581.65
2023-03-06T18:45:10.681Z,97576.04
2023-03-06T18:47:37.583Z,97575.75
2023-03-06T18:50:04.812Z,97572.42
2023-03-06T18:52:33.287Z,97567.38
2023-03-06T18:55:00.549Z,97564.16
2023-03-06T18:57:29.948Z,97559.82
2023-03-06T18:59:57.426Z,97556.65
2023-03-06T19:02:24.371Z,97557.95
2023-03-06T19:04:52.548Z,97559.80
2023-03-06T19:07:19.397Z,97559.39
2023-03-06T19:09:47.883Z,97558.11
2023-03-06T19:12:15.243Z,97556.02
2023-03-06T19:14:42.146Z,97551.75
2023-03-06T19:17:09.051Z,97552.91
2023-03-06T19:19:36.035Z,97553.89
2023-03-06T19:22:03.103Z,97548.98
2023-03-06T19:24:30.121Z,97549.00
2023-03-06T19:26:57.069Z,97546.94
2023-03-06T19:29:24.012Z,97541.48
2023-03-06T19:31:51.597Z,97538.15
2023-03-06T19:34:18.651Z,97541.65
2023-03-06T19:36:45.574Z,97536.10
2023-03-06T19:39:12.480Z,97534.21
2023-03-06T19:41:39.347Z,97531.92
2023-03-06T19:44:06.335Z,97530.51
2023-03-06T19:46:34.008Z,97531.69
2023-03-06T19:49:02.290Z,97524.52
2023-03-06T19:51:30.139Z,97521.40
2023-03-06T19:53:56.979Z,97516.70
2023-03-06T19:56:29.632Z,97521.41
2023-03-06T19:58:56.606Z,97524.16
2023-03-06T20:01:24.462Z,97521.15
2023-03-06T20:03:57.985Z,97518.59
2023-03-06T20:06:26.535Z,97518.61
2023-03-06T20:08:53.598Z,97512.73
2023-03-06T20:11:24.761Z,97516.40
2023-03-06T20:13:51.677Z,97511.96
2023-03-06T20:16:18.492Z,97505.33
2023-03-06T20:18:45.392Z,97502.54
2023-03-06T20:21:12.444Z,97495.77
2023-03-06T20:23:39.634Z,97487.30
2023-03-06T20:26:09.091Z,97486.21
2023-03-06T20:28:36.248Z,97482.41
2023-03-06T20:31:07.274Z,97481.94
2023-03-06T20:33:34.323Z,97479.61
2023-03-06T20:36:01.187Z,97478.58
2023-03-06T20:38:28.136Z,97485.92
2023-03-06T20:40:57.214Z,97486.80
2023-03-06T20:43:24.251Z,97482.46
2023-03-06T20:45:55.688Z,97484.67
2023-03-06T20:48:22.515Z,97478.81
2023-03-06T20:51:10.408Z,97479.07
2023-03-06T20:53:37.315Z,97473.67
2023-03-06T20:56:04.503Z,97474.84
2023-03-06T20:58:31.996Z,97470.49
2023-03-06T21:01:00.804Z,97471.70
2023-03-06T21:03:29.340Z,97467.44
2023-03-06T21:05:56.556Z,97460.48
2023-03-06T21:08:23.693Z,97461.23
2023-03-06T21:10:50.650Z,97459.17
2023-03-06T21:13:17.843Z,97459.10
2023-03-06T21:15:46.957Z,97457.75
2023-03-06T21:18:13.822Z,97463.13
2023-03-06T21:20:40.984Z,97465.25
2023-03-06T21:23:08.500Z,97466.20
2023-03-06T21:25:35.274Z,97469.46
2023-03-06T21:28:02.280Z,97471.31
2023-03-06T21:30:29.139Z,97468.45
2023-03-06T21:32:56.064Z,97466.81
2023-03-06T21:35:23.069Z,97462.39
2023-03-06T21:37:49.994Z,97461.70
2023-03-06T21:40:16.874Z,97457.21
2023-03-06T21:42:43.696Z,97451.38
2023-03-06T21:45:11.458Z,97448.70
2023-03-06T21:47:40.222Z,97448.22
2023-03-06T21:50:08.872Z,97449.15
2023-03-06T21:52:36.217Z,97448.91
2023-03-06T21:55:03.257Z,97448.35
2023-03-06T21:57:30.333Z,97442.58
2023-03-06T21:59:57.271Z,97439.70
2023-03-06T22:02:24.176Z,97438.44
2023-03-06T22:04:52.075Z,97436.65
2023-03-06T22:07:19.552Z,97434.91
2023-03-06T22:09:46.463Z,97436.74
2023-03-06T22:12:13.342Z,97434.70
2023-03-06T22:14:42.407Z,97431.31
2023-03-06T22:17:09.253Z,97430.45
2023-03-06T22:19:36.112Z,97436.65
2023-03-06T22:22:03.312Z,97437.44
2023-03-06T22:24:33.361Z,97443.04
2023-03-06T22:27:00.216Z,97446.52
2023-03-06T22:29:26.998Z,97444.18
2023-03-06T22:31:53.897Z,97437.80
2023-03-06T22:34:20.654Z,97442.08
2023-03-06T22:36:47.706Z,97445.39
2023-03-06T22:39:14.850Z,97442.75
2023-03-06T22:41:41.685Z,97447.85
2023-03-06T22:44:13.868Z,97452.79
2023-03-06T22:46:41.211Z,97458.48
2023-03-06T22:49:09.087Z,97463.39
2023-03-06T22:51:37.263Z,97458.95
2023-03-06T22:54:40.856Z,97462.73
2023-03-06T22:57:07.700Z,97461.48
2023-03-06T22:59:34.610Z,97464.86
2023-03-06T23:02:01.600Z,97475.16
2023-03-06T23:04:28.479Z,97480.23
2023-03-06T23:06:55.333Z,97484.35
2023-03-06T23:09:22.392Z,97491.51
2023-03-06T23:12:08.633Z,97491.41
2023-03-06T23:14:53.902Z,97475.52
2023-03-06T23:17:39.493Z,97485.13
2023-03-06T23:20:25.033Z,97482.73
2023-03-06T23:23:10.581Z,97481.77
2023-03-06T23:25:43.660Z,97484.92
2023-03-06T23:28:11.194Z,97481.56
2023-03-06T23:30:41.275Z,97483.23
2023-03-06T23:33:08.194Z,97488.58
2023-03-06T23:35:36.299Z,97491.31
2023-03-06T23:38:03.166Z,97489.01
2023-03-06T23:40:30.782Z,97488.73
2023-03-06T23:42:57.585Z,97489.34
2023-03-06T23:45:24.454Z,97488.08
2023-03-06T23:47:51.397Z,97485.39
2023-03-06T23:50:18.420Z,97486.38
2023-03-06T23:52:45.186Z,97494.58
2023-03-06T23:55:12.036Z,97500.80
2023-03-06T23:57:38.881Z,97505.45
